Time;durP1;ratioP1;P1;durP2;ratioP2;P2;SDS_P1;SDS_P2;PMS_P1;PMS_P2;Temp;Humidity;BMP_temperature;BMP_pressure;BME280_temperature;BME280_humidity;BME280_pressure;Samples;Min_cycle;Max_cycle;Signal;HPM_P1;HPM_P2
2022/02/12 10:11:43;;;;;;;;;;;;;;;40.61;10.10;98769.59;176293;27;1182;-58
2022/02/12 10:11:48;;;;;;;;;;;;;;;40.58;9.76;98769.97;173826;28;1712;-57
2022/02/12 10:11:54;;;;;;;;;;;;;;;40.48;9.89;98767.56;174897;28;1073;-57
2022/02/12 10:11:59;;;;;;;;;;;;;;;40.53;9.87;98762.44;175072;28;1175;-57
2022/02/12 10:12:04;;;;;;;;;;;;;;;40.50;9.87;98767.38;174832;28;955;-57
2022/02/12 10:12:10;;;;;;;;;;;;;;;40.45;9.89;98766.09;175697;28;1044;-58
2022/02/12 10:12:24;;;;;;;;;;;;;;;40.60;9.83;98766.03;175555;28;1254;-57
2022/02/12 10:12:29;;;;;;;;;;;;;;;40.70;10.02;98765.75;175079;28;1174;-55
2022/02/12 10:12:34;;;;;;;;;;;;;;;40.73;9.72;98758.09;176547;28;797;-57
2022/02/12 10:12:40;;;;;;;;;;;;;;;40.82;9.69;98761.50;176066;28;1194;-57
2022/02/12 10:12:46;;;;;;;;;;;;;;;40.82;10.00;98757.97;175785;28;857;-57
2022/02/12 10:12:51;;;;;;;;;;;;;;;40.74;9.87;98762.47;175195;28;1431;-57
2022/02/12 10:13:13;;;;;;;;;;;;;;;40.73;9.76;98759.97;175531;28;797;-57
2022/02/12 10:13:21;;;;;;;;;;;;;;;41.09;9.56;98757.25;175710;28;876;-58
2022/02/12 10:13:30;;;;;;;;;;;;;;;41.16;9.94;98763.59;175629;28;1115;-57
2022/02/12 10:13:38;;;;;;;;;;;;;;;41.18;9.60;98755.25;175755;28;1034;-58
2022/02/12 10:13:43;;;;;;;;;;;;;;;41.13;9.98;98755.00;175013;28;900;-57
2022/02/12 10:13:48;;;;;;;;;;;;;;;41.03;9.84;98762.59;175114;28;1224;-56
2022/02/12 10:14:06;;;;;;;;;;;;;;;41.13;9.46;98755.81;176212;28;813;-58
2022/02/12 10:14:13;;;;;;;;;;;;;;;41.30;9.42;98758.31;174163;28;1089;-57
2022/02/12 10:14:19;;;;;;;;;;;;;;;41.34;9.84;98754.19;175041;28;809;-58
2022/02/12 10:14:27;;;;;;;;;;;;;;;41.36;9.89;98755.66;175038;28;978;-57
2022/02/12 10:14:34;;;;;;;;;;;;;;;41.36;9.81;98757.53;175104;28;864;-57
2022/02/12 10:14:40;;;;;;;;;;;;;;;41.41;9.37;98755.09;173244;28;4112;-58
2022/02/12 10:14:45;;;;;;;;;;;;;;;41.50;9.54;98754.75;173797;28;810;-57
2022/02/12 10:14:50;;;;;;;;;;;;;;;41.62;9.56;98757.72;173580;28;1169;-58
2022/02/12 10:14:55;;;;;;;;;;;;;;;41.65;9.50;98754.66;173680;28;928;-57
2022/02/12 10:15:00;;;;;;;;;;;;;;;41.70;9.65;98754.03;173480;28;1161;-56
2022/02/12 10:15:13;;;;;;;;;;;;;;;41.73;9.20;98753.69;173019;28;1178;-57
2022/02/12 10:15:24;;;;;;;;;;;;;;;41.68;9.22;98756.13;172915;28;821;-58
2022/02/12 10:15:29;;;;;;;;;;;;;;;41.62;9.45;98759.59;172398;28;1513;-57
2022/02/12 10:15:35;;;;;;;;;;;;;;;41.73;9.34;98751.00;172888;28;868;-57
2022/02/12 10:15:40;;;;;;;;;;;;;;;41.77;9.70;98758.50;172940;28;945;-58
2022/02/12 10:15:49;;;;;;;;;;;;;;;41.81;9.60;98761.69;172985;28;1163;-57
2022/02/12 10:15:55;;;;;;;;;;;;;;;41.82;9.13;98761.47;172192;28;1222;-58
2022/02/12 10:16:01;;;;;;;;;;;;;;;41.78;9.62;98759.34;172156;28;1157;-58
2022/02/12 10:16:06;;;;;;;;;;;;;;;41.94;9.57;98760.91;172548;28;1067;-58
2022/02/12 10:16:11;;;;;;;;;;;;;;;42.01;9.26;98757.19;172405;28;1054;-58
2022/02/12 10:16:17;;;;;;;;;;;;;;;42.05;9.01;98754.94;172364;28;893;-57
2022/02/12 10:16:22;;;;;;;;;;;;;;;42.05;9.05;98757.66;172630;28;1006;-58
2022/02/12 10:16:27;;;;;;;;;;;;;;;41.99;9.04;98747.59;172392;28;876;-57
2022/02/12 10:16:53;;;;;;;;;;;;;;;41.96;9.49;98756.16;172020;28;1060;-58
2022/02/12 10:17:00;;;;;;;;;;;;;;;41.95;9.53;98758.03;171483;28;1154;-58
2022/02/12 10:17:06;;;;;;;;;;;;;;;41.90;9.55;98755.06;172385;28;881;-58
2022/02/12 10:17:11;;;;;;;;;;;;;;;41.91;9.08;98753.19;172660;28;987;-57
2022/02/12 10:17:20;;;;;;;;;;;;;;;41.94;9.15;98750.06;172445;28;905;-58
2022/02/12 10:17:25;;;;;;;;;;;;;;;42.01;9.01;98754.50;172374;28;814;-58
2022/02/12 10:17:30;;;;;;;;;;;;;;;41.98;9.09;98754.91;171698;28;920;-57
2022/02/12 10:17:36;;;;;;;;;;;;;;;42.00;9.15;98760.13;171426;28;1050;-58
2022/02/12 10:17:53;;;;;;;;;;;;;;;41.97;9.11;98755.94;171822;28;882;-58
2022/02/12 10:17:59;;;;;;;;;;;;;;;41.97;9.06;98750.53;172162;28;1355;-57
2022/02/12 10:18:04;;;;;;;;;;;;;;;42.04;9.52;98745.16;172902;28;817;-58
2022/02/12 10:18:10;;;;;;;;;;;;;;;42.07;9.52;98755.56;172686;28;1192;-57
2022/02/12 10:18:17;;;;;;;;;;;;;;;42.06;9.04;98752.03;172480;28;813;-58
2022/02/12 10:18:23;;;;;;;;;;;;;;;42.01;9.55;98749.06;172398;28;1164;-58
2022/02/12 10:18:29;;;;;;;;;;;;;;;42.05;9.03;98754.94;172483;28;806;-57
2022/02/12 10:18:36;;;;;;;;;;;;;;;42.09;9.08;98753.50;173398;28;1062;-58
2022/02/12 10:18:42;;;;;;;;;;;;;;;42.09;9.43;98753.50;173461;28;4409;-58
2022/02/12 10:18:48;;;;;;;;;;;;;;;42.03;9.44;98757.00;173731;28;1148;-58
2022/02/12 10:18:56;;;;;;;;;;;;;;;42.09;9.13;98748.91;172283;28;1281;-58
2022/02/12 10:19:01;;;;;;;;;;;;;;;42.13;9.04;98753.94;172444;28;1145;-58
2022/02/12 10:19:06;;;;;;;;;;;;;;;42.17;8.95;98745.22;173065;28;1173;-58
2022/02/12 10:19:12;;;;;;;;;;;;;;;42.19;9.41;98759.44;173121;28;920;-58
2022/02/12 10:19:17;;;;;;;;;;;;;;;42.12;8.95;98744.97;173783;28;789;-57
2022/02/12 10:19:29;;;;;;;;;;;;;;;42.13;9.46;98749.41;174193;28;1256;-58
2022/02/12 10:19:35;;;;;;;;;;;;;;;42.20;9.20;98746.72;173518;28;864;-57
2022/02/12 10:19:43;;;;;;;;;;;;;;;42.17;9.36;98747.94;174291;28;801;-57
2022/02/12 10:19:49;;;;;;;;;;;;;;;42.15;9.50;98746.47;173878;28;754;-58
2022/02/12 10:19:54;;;;;;;;;;;;;;;42.14;8.95;98750.22;173796;28;1039;-58
2022/02/12 10:19:59;;;;;;;;;;;;;;;42.10;9.05;98742.44;173792;28;1069;-58
2022/02/12 10:20:06;;;;;;;;;;;;;;;42.07;9.11;98748.28;173884;28;949;-57
2022/02/12 10:20:20;;;;;;;;;;;;;;;42.09;9.14;98739.94;173912;28;859;-57
2022/02/12 10:20:28;;;;;;;;;;;;;;;42.23;9.31;98746.31;173275;28;1027;-57
2022/02/12 10:20:34;;;;;;;;;;;;;;;42.20;9.39;98750.28;173737;28;904;-58
2022/02/12 10:20:41;;;;;;;;;;;;;;;42.28;9.19;98749.25;173700;28;804;-58
2022/02/12 10:20:46;;;;;;;;;;;;;;;42.30;9.40;98749.88;173840;28;801;-58
2022/02/12 10:20:53;;;;;;;;;;;;;;;42.23;8.96;98744.44;173949;28;1155;-57
2022/02/12 10:20:59;;;;;;;;;;;;;;;42.17;9.03;98747.94;174585;28;837;-58
2022/02/12 10:21:04;;;;;;;;;;;;;;;42.24;8.96;98743.38;174328;28;1104;-58
2022/02/12 10:21:09;;;;;;;;;;;;;;;42.26;9.49;98737.75;174500;28;888;-57
2022/02/12 10:21:15;;;;;;;;;;;;;;;42.23;9.14;98743.59;174547;28;825;-58
2022/02/12 10:21:22;;;;;;;;;;;;;;;42.22;9.28;98739.22;175151;28;840;-58
2022/02/12 10:21:27;;;;;;;;;;;;;;;42.13;9.56;98743.97;175012;28;1317;-58
2022/02/12 10:21:32;;;;;;;;;;;;;;;42.13;9.51;98743.09;173631;28;1175;-57
2022/02/12 10:21:37;;;;;;;;;;;;;;;42.16;9.05;98740.84;173641;28;789;-58
2022/02/12 10:22:22;;;;;;;;;;;;;;;42.23;9.02;98740.88;173713;28;1094;-58
2022/02/12 10:22:27;;;;;;;;;;;;;;;42.18;9.37;98733.34;171028;28;882;-58
2022/02/12 10:22:33;;;;;;;;;;;;;;;42.23;9.02;98733.59;170522;28;5503;-57
2022/02/12 10:22:40;;;;;;;;;;;;;;;42.17;9.15;98738.97;170966;28;988;-58
2022/02/12 10:22:45;;;;;;;;;;;;;;;42.22;9.41;98736.50;170135;29;1447;-55
2022/02/12 10:22:51;;;;;;;;;;;;;;;42.27;8.99;98734.03;170346;29;1195;-58
2022/02/12 10:23:14;;;;;;;;;;;;;;;42.27;9.47;98737.59;170514;28;1435;-57
2022/02/12 10:23:20;;;;;;;;;;;;;;;42.19;9.24;98739.59;170495;28;807;-57
2022/02/12 10:23:26;;;;;;;;;;;;;;;42.16;9.53;98721.88;170964;28;1087;-57
2022/02/12 10:23:31;;;;;;;;;;;;;;;42.26;9.05;98738.59;171170;28;849;-57
2022/02/12 10:23:40;;;;;;;;;;;;;;;42.24;9.08;98727.13;171560;28;1055;-56
2022/02/12 10:23:47;;;;;;;;;;;;;;;42.28;9.46;98733.00;171645;28;775;-57
2022/02/12 10:23:52;;;;;;;;;;;;;;;42.26;9.34;98733.16;171619;28;1177;-57
2022/02/12 10:23:58;;;;;;;;;;;;;;;42.21;9.37;98732.13;171762;28;1020;-58
2022/02/12 10:24:03;;;;;;;;;;;;;;;42.25;9.49;98728.78;171495;28;1134;-58
2022/02/12 10:24:08;;;;;;;;;;;;;;;42.28;9.46;98735.72;171692;28;787;-58
2022/02/12 10:24:13;;;;;;;;;;;;;;;42.26;8.96;98730.47;171583;28;1170;-58
2022/02/12 10:24:20;;;;;;;;;;;;;;;42.21;9.07;98732.97;171742;28;914;-58
2022/02/12 10:24:45;;;;;;;;;;;;;;;42.29;9.04;98734.66;171692;28;1162;-58
2022/02/12 10:24:50;;;;;;;;;;;;;;;42.23;9.56;98725.44;172228;28;1114;-57
2022/02/12 10:24:58;;;;;;;;;;;;;;;42.22;9.23;98734.63;172439;28;865;-57
2022/02/12 10:25:05;;;;;;;;;;;;;;;42.22;9.19;98731.91;172230;28;1181;-57
2022/02/12 10:25:10;;;;;;;;;;;;;;;42.28;9.40;98731.13;172385;28;909;-58
2022/02/12 10:25:18;;;;;;;;;;;;;;;42.30;9.42;98726.31;172366;28;1481;-58
2022/02/12 10:25:23;;;;;;;;;;;;;;;42.30;9.45;98731.75;172419;28;1267;-58
2022/02/12 10:25:28;;;;;;;;;;;;;;;42.34;9.04;98729.44;172284;28;1478;-57
2022/02/12 10:25:34;;;;;;;;;;;;;;;42.31;9.10;98732.56;172237;28;1062;-57
2022/02/12 10:25:41;;;;;;;;;;;;;;;42.28;8.96;98736.53;172268;28;817;-58
2022/02/12 10:25:47;;;;;;;;;;;;;;;42.21;9.53;98734.84;172280;28;1111;-57
2022/02/12 10:26:10;;;;;;;;;;;;;;;42.28;9.30;98733.81;172423;28;854;-58
2022/02/12 10:26:15;;;;;;;;;;;;;;;42.22;9.19;98726.50;171711;28;873;-57
2022/02/12 10:26:21;;;;;;;;;;;;;;;42.24;9.12;98718.97;171816;28;874;-58
2022/02/12 10:26:30;;;;;;;;;;;;;;;42.28;9.07;98728.41;171760;28;778;-57
2022/02/12 10:26:39;;;;;;;;;;;;;;;42.29;8.99;98727.34;171085;28;4328;-57
2022/02/12 10:26:59;;;;;;;;;;;;;;;42.26;9.07;98727.75;171022;28;1529;-56
2022/02/12 10:27:05;;;;;;;;;;;;;;;42.30;9.45;98726.31;171707;28;822;-58
2022/02/12 10:27:10;;;;;;;;;;;;;;;42.30;9.14;98723.59;171595;28;1139;-58
2022/02/12 10:27:15;;;;;;;;;;;;;;;42.34;9.49;98732.16;171677;28;939;-57
2022/02/12 10:27:24;;;;;;;;;;;;;;;42.33;9.55;98723.19;171716;28;1088;-58
2022/02/12 10:27:29;;;;;;;;;;;;;;;42.32;9.55;98724.22;170489;28;862;-57
2022/02/12 10:27:36;;;;;;;;;;;;;;;42.24;9.51;98726.28;171804;28;1221;-58
2022/02/12 10:27:43;;;;;;;;;;;;;;;42.26;9.54;98726.91;172186;28;1121;-57
2022/02/12 10:27:50;;;;;;;;;;;;;;;42.31;9.56;98724.44;171624;28;1323;-57
2022/02/12 10:27:55;;;;;;;;;;;;;;;42.29;9.55;98731.94;171526;28;1244;-57
2022/02/12 10:28:01;;;;;;;;;;;;;;;42.32;9.12;98723.41;171553;28;1217;-57
2022/02/12 10:28:06;;;;;;;;;;;;;;;42.29;9.50;98727.34;171137;28;1487;-56
2022/02/12 10:28:12;;;;;;;;;;;;;;;42.34;8.99;98727.56;171657;28;1145;-58
2022/02/12 10:28:17;;;;;;;;;;;;;;;42.32;9.50;98720.69;171654;28;810;-57
2022/02/12 10:28:22;;;;;;;;;;;;;;;42.35;9.59;98726.56;171675;28;1166;-57
2022/02/12 10:28:28;;;;;;;;;;;;;;;42.31;9.56;98729.88;171795;28;818;-55
2022/02/12 10:28:34;;;;;;;;;;;;;;;42.28;9.58;98725.69;172051;28;1257;-57
2022/02/12 10:28:42;;;;;;;;;;;;;;;42.27;9.15;98729.44;172627;28;992;-57
2022/02/12 10:28:47;;;;;;;;;;;;;;;42.35;9.61;98723.84;172812;28;928;-58
2022/02/12 10:28:53;;;;;;;;;;;;;;;42.42;9.46;98728.44;172949;28;1374;-57
2022/02/12 10:29:01;;;;;;;;;;;;;;;42.39;9.12;98721.56;173106;28;1142;-57
2022/02/12 10:29:06;;;;;;;;;;;;;;;42.36;9.03;98725.53;173102;28;853;-57
2022/02/12 10:29:14;;;;;;;;;;;;;;;42.43;9.27;98727.44;172537;28;932;-58
2022/02/12 10:29:20;;;;;;;;;;;;;;;42.42;9.01;98720.31;173309;28;1623;-57
2022/02/12 10:29:25;;;;;;;;;;;;;;;42.38;9.28;98719.88;173807;28;1165;-58
2022/02/12 10:29:30;;;;;;;;;;;;;;;42.35;9.52;98726.56;173744;28;1210;-57
2022/02/12 10:29:35;;;;;;;;;;;;;;;42.33;9.50;98719.66;173171;28;881;-58
2022/02/12 10:29:40;;;;;;;;;;;;;;;42.33;9.06;98720.47;173446;28;766;-57
2022/02/12 10:29:47;;;;;;;;;;;;;;;42.35;9.17;98720.31;173718;28;1195;-58
2022/02/12 10:29:52;;;;;;;;;;;;;;;42.30;9.09;98715.47;173698;28;849;-57
2022/02/12 10:30:03;;;;;;;;;;;;;;;42.33;9.51;98725.06;173187;28;1173;-58
2022/02/12 10:30:08;;;;;;;;;;;;;;;42.42;9.51;98720.31;173484;28;987;-58
2022/02/12 10:30:13;;;;;;;;;;;;;;;42.41;9.08;98722.19;173812;28;884;-58
2022/02/12 10:30:19;;;;;;;;;;;;;;;42.34;9.23;98719.44;173110;28;1228;-58
2022/02/12 10:30:27;;;;;;;;;;;;;;;42.34;9.48;98714.00;172364;28;1707;-57
2022/02/12 10:30:32;;;;;;;;;;;;;;;42.31;9.39;98719.03;171974;28;1241;-57
2022/02/12 10:30:37;;;;;;;;;;;;;;;42.34;9.22;98719.44;172122;28;4457;-56
2022/02/12 10:30:43;;;;;;;;;;;;;;;42.33;9.57;98717.75;173123;28;1149;-57
2022/02/12 10:30:48;;;;;;;;;;;;;;;42.31;9.57;98722.56;173104;28;806;-58
2022/02/12 10:30:53;;;;;;;;;;;;;;;42.41;9.04;98718.63;173540;28;961;-58
2022/02/12 10:30:59;;;;;;;;;;;;;;;42.41;9.14;98722.19;173092;28;1369;-58
2022/02/12 10:31:04;;;;;;;;;;;;;;;42.39;9.56;98721.56;172955;28;1152;-56
2022/02/12 10:31:09;;;;;;;;;;;;;;;42.42;9.55;98720.31;172442;28;874;-57
2022/02/12 10:31:15;;;;;;;;;;;;;;;42.46;9.05;98722.41;172541;28;850;-58
2022/02/12 10:31:20;;;;;;;;;;;;;;;42.44;9.16;98718.25;173585;28;1222;-58
2022/02/12 10:31:27;;;;;;;;;;;;;;;42.35;9.11;98720.31;173747;28;1906;-58
2022/02/12 10:31:33;;;;;;;;;;;;;;;42.37;9.51;98713.63;173241;28;923;-58
2022/02/12 10:31:44;;;;;;;;;;;;;;;42.43;9.46;98722.84;173055;28;1340;-57
2022/02/12 10:31:49;;;;;;;;;;;;;;;42.43;9.49;98717.41;172302;28;825;-58
2022/02/12 10:31:57;;;;;;;;;;;;;;;42.46;9.45;98716.16;172919;28;984;-58
2022/02/12 10:32:02;;;;;;;;;;;;;;;42.48;8.94;98714.91;173086;28;1410;-57
2022/02/12 10:32:08;;;;;;;;;;;;;;;42.49;9.40;98718.44;171733;28;1336;-57
2022/02/12 10:32:17;;;;;;;;;;;;;;;42.51;9.52;98716.41;171750;28;1267;-57
2022/02/12 10:32:22;;;;;;;;;;;;;;;42.48;9.60;98716.78;171737;28;1121;-56
2022/02/12 10:32:27;;;;;;;;;;;;;;;42.44;9.23;98718.25;172384;28;1197;-58
2022/02/12 10:32:33;;;;;;;;;;;;;;;42.48;9.05;98714.91;172464;28;1043;-58
2022/02/12 10:32:38;;;;;;;;;;;;;;;42.45;9.17;98714.50;172641;28;1358;-58
2022/02/12 10:32:44;;;;;;;;;;;;;;;42.36;9.36;98713.84;172988;28;1156;-57
2022/02/12 10:32:49;;;;;;;;;;;;;;;42.26;9.62;98716.91;172925;28;1102;-57
2022/02/12 10:32:58;;;;;;;;;;;;;;;42.34;9.60;98715.88;172822;28;1468;-58
2022/02/12 10:33:03;;;;;;;;;;;;;;;42.33;9.09;98714.22;172863;28;1132;-58
2022/02/12 10:33:09;;;;;;;;;;;;;;;42.35;9.29;98715.72;173118;28;869;-57
2022/02/12 10:33:14;;;;;;;;;;;;;;;42.33;9.22;98712.34;172965;28;1133;-58
2022/02/12 10:33:19;;;;;;;;;;;;;;;42.45;9.01;98709.06;172966;28;865;-58
2022/02/12 10:33:25;;;;;;;;;;;;;;;42.39;9.49;98716.13;172570;28;1211;-57
2022/02/12 10:33:30;;;;;;;;;;;;;;;42.44;9.09;98720.97;172386;28;1019;-58
2022/02/12 10:33:39;;;;;;;;;;;;;;;42.43;9.53;98714.69;173087;28;916;-56
2022/02/12 10:33:45;;;;;;;;;;;;;;;42.38;9.32;98715.28;173177;28;1173;-57
2022/02/12 10:33:52;;;;;;;;;;;;;;;42.41;9.13;98714.03;173615;28;1212;-57
2022/02/12 10:33:57;;;;;;;;;;;;;;;42.43;9.54;98713.88;173854;28;822;-58
2022/02/12 10:34:02;;;;;;;;;;;;;;;42.40;9.44;98714.25;173747;28;1065;-58
2022/02/12 10:34:07;;;;;;;;;;;;;;;42.35;9.14;98715.72;173778;28;1309;-57
2022/02/12 10:34:13;;;;;;;;;;;;;;;42.38;9.45;98711.75;173736;28;982;-58
2022/02/12 10:34:20;;;;;;;;;;;;;;;42.32;9.40;98712.56;173876;28;845;-58
2022/02/12 10:34:25;;;;;;;;;;;;;;;42.28;9.67;98712.13;173683;28;1081;-57
2022/02/12 10:34:37;;;;;;;;;;;;;;;42.27;9.54;98705.03;173923;28;794;-57
2022/02/12 10:34:45;;;;;;;;;;;;;;;42.27;9.30;98713.19;172199;28;4282;-58
2022/02/12 10:34:51;;;;;;;;;;;;;;;42.24;9.76;98708.13;172952;28;1221;-57
2022/02/12 10:34:59;;;;;;;;;;;;;;;42.25;9.25;98709.81;173724;28;904;-57
2022/02/12 10:35:08;;;;;;;;;;;;;;;42.32;9.17;98705.25;173776;28;915;-57
2022/02/12 10:35:13;;;;;;;;;;;;;;;42.30;9.63;98710.03;173421;28;1362;-57
2022/02/12 10:35:18;;;;;;;;;;;;;;;42.31;9.19;98709.00;173200;28;947;-57
2022/02/12 10:35:23;;;;;;;;;;;;;;;42.41;9.65;98711.31;173279;28;1098;-57
2022/02/12 10:35:29;;;;;;;;;;;;;;;42.36;9.60;98709.25;173474;28;786;-57
2022/02/12 10:35:34;;;;;;;;;;;;;;;42.43;9.11;98703.00;173861;28;865;-58
2022/02/12 10:35:40;;;;;;;;;;;;;;;42.42;9.29;98704.84;173136;28;853;-57
2022/02/12 10:35:53;;;;;;;;;;;;;;;42.31;9.61;98706.28;173489;28;1211;-57
2022/02/12 10:35:59;;;;;;;;;;;;;;;42.40;9.46;98706.13;173773;28;1227;-58
2022/02/12 10:36:04;;;;;;;;;;;;;;;42.38;9.30;98704.44;172843;28;1496;-57
2022/02/12 10:36:13;;;;;;;;;;;;;;;42.24;9.21;98710.84;172374;28;1522;-55
2022/02/12 10:36:19;;;;;;;;;;;;;;;42.21;9.55;98708.56;173396;28;1000;-58
2022/02/12 10:36:26;;;;;;;;;;;;;;;42.24;9.73;98710.84;173729;28;1076;-57
2022/02/12 10:36:31;;;;;;;;;;;;;;;42.29;9.22;98715.69;174516;28;1028;-58
2022/02/12 10:36:37;;;;;;;;;;;;;;;42.36;9.22;98705.69;174708;28;1246;-58
2022/02/12 10:36:42;;;;;;;;;;;;;;;42.31;9.22;98711.72;173740;28;769;-57
2022/02/12 10:36:47;;;;;;;;;;;;;;;42.42;9.25;98704.84;173671;28;1193;-57
2022/02/12 10:36:53;;;;;;;;;;;;;;;42.45;9.63;98706.34;174014;28;962;-57
2022/02/12 10:36:58;;;;;;;;;;;;;;;42.45;9.19;98711.78;173752;28;1119;-57
2022/02/12 10:37:03;;;;;;;;;;;;;;;42.44;9.46;98712.81;172929;28;1191;-58
2022/02/12 10:37:11;;;;;;;;;;;;;;;42.39;9.12;98708.00;173178;28;486;-57
2022/02/12 10:37:18;;;;;;;;;;;;;;;42.49;9.34;98710.31;173032;28;877;-57
2022/02/12 10:37:23;;;;;;;;;;;;;;;42.43;9.38;98711.16;172817;28;979;-58
2022/02/12 10:37:28;;;;;;;;;;;;;;;42.44;9.09;98708.22;173737;28;797;-58
2022/02/12 10:37:35;;;;;;;;;;;;;;;42.43;9.32;98711.97;173419;28;1172;-58
2022/02/12 10:37:45;;;;;;;;;;;;;;;42.34;9.30;98707.75;172350;28;1471;-57
2022/02/12 10:37:50;;;;;;;;;;;;;;;42.44;9.61;98710.09;173077;28;933;-57
2022/02/12 10:37:59;;;;;;;;;;;;;;;42.42;9.17;98706.75;172423;28;1696;-55
2022/02/12 10:38:05;;;;;;;;;;;;;;;42.33;9.17;98711.50;172804;28;1052;-56
2022/02/12 10:38:16;;;;;;;;;;;;;;;42.30;9.26;98706.50;173735;28;1069;-58
2022/02/12 10:38:21;;;;;;;;;;;;;;;42.40;9.44;98711.53;173873;28;1075;-58
2022/02/12 10:38:28;;;;;;;;;;;;;;;42.31;9.66;98703.59;173846;28;814;-57
2022/02/12 10:38:33;;;;;;;;;;;;;;;42.38;9.18;98709.88;173300;28;4220;-57
2022/02/12 10:38:43;;;;;;;;;;;;;;;42.40;9.21;98706.13;173766;28;1209;-58
2022/02/12 10:38:48;;;;;;;;;;;;;;;42.37;9.29;98708.19;173012;28;1023;-57
2022/02/12 10:38:54;;;;;;;;;;;;;;;42.26;9.29;98705.22;173783;28;829;-57
2022/02/12 10:38:59;;;;;;;;;;;;;;;42.39;9.32;98702.56;173672;28;1145;-57
2022/02/12 10:39:04;;;;;;;;;;;;;;;42.45;9.60;98706.34;174512;28;818;-58
2022/02/12 10:39:10;;;;;;;;;;;;;;;42.34;9.66;98699.63;173417;28;2016;-57
2022/02/12 10:39:15;;;;;;;;;;;;;;;42.34;9.67;98705.03;173588;28;833;-58
2022/02/12 10:39:21;;;;;;;;;;;;;;;42.35;9.20;98701.31;173458;28;1225;-58
2022/02/12 10:39:26;;;;;;;;;;;;;;;42.34;9.20;98705.88;173866;28;901;-58
2022/02/12 10:39:31;;;;;;;;;;;;;;;42.43;9.51;98705.72;173060;28;1261;-57
2022/02/12 10:39:55;;;;;;;;;;;;;;;42.47;9.13;98702.38;173079;28;798;-57
2022/02/12 10:40:01;;;;;;;;;;;;;;;42.45;9.19;98706.34;173114;28;1094;-57
2022/02/12 10:40:06;;;;;;;;;;;;;;;42.36;9.24;98701.09;173096;28;1019;-57
2022/02/12 10:40:12;;;;;;;;;;;;;;;42.31;9.24;98703.59;173058;28;913;-58
2022/02/12 10:40:17;;;;;;;;;;;;;;;42.28;9.67;98705.88;173122;28;814;-58
2022/02/12 10:40:22;;;;;;;;;;;;;;;42.16;9.80;98704.75;173099;28;778;-58
2022/02/12 10:40:27;;;;;;;;;;;;;;;42.15;9.80;98708.50;173069;28;885;-57
2022/02/12 10:40:33;;;;;;;;;;;;;;;42.08;9.85;98703.03;172950;28;1000;-57
2022/02/12 10:40:38;;;;;;;;;;;;;;;42.25;9.73;98709.81;173089;28;960;-57
2022/02/12 10:40:43;;;;;;;;;;;;;;;42.26;9.79;98702.50;173088;28;1142;-57
2022/02/12 10:41:09;;;;;;;;;;;;;;;42.23;9.71;98702.91;172213;28;1323;-57
2022/02/12 10:41:15;;;;;;;;;;;;;;;42.37;9.46;98700.06;172679;28;1368;-58
2022/02/12 10:41:21;;;;;;;;;;;;;;;42.40;9.65;98700.69;173107;28;1142;-57
2022/02/12 10:41:26;;;;;;;;;;;;;;;42.38;9.70;98709.03;173106;28;1182;-57
2022/02/12 10:41:32;;;;;;;;;;;;;;;42.28;9.71;98705.88;173620;28;1141;-58
2022/02/12 10:41:37;;;;;;;;;;;;;;;42.35;9.68;98694.00;173797;28;809;-58
2022/02/12 10:41:42;;;;;;;;;;;;;;;42.26;9.47;98703.34;174170;28;1184;-57
2022/02/12 10:42:02;;;;;;;;;;;;;;;42.33;9.71;98704.22;174389;28;1274;-57
2022/02/12 10:42:07;;;;;;;;;;;;;;;42.34;9.28;98707.75;175012;28;1129;-58
2022/02/12 10:42:13;;;;;;;;;;;;;;;42.29;9.73;98704.84;175172;28;885;-56
2022/02/12 10:42:18;;;;;;;;;;;;;;;42.38;9.51;98701.72;175061;28;1113;-58
2022/02/12 10:42:24;;;;;;;;;;;;;;;42.35;9.22;98701.31;174528;28;829;-57
2022/02/12 10:42:30;;;;;;;;;;;;;;;42.35;9.25;98698.59;174882;28;1137;-57
2022/02/12 10:42:43;;;;;;;;;;;;;;;42.38;9.69;98704.44;174773;28;4180;-58
2022/02/12 10:42:48;;;;;;;;;;;;;;;42.40;9.22;98695.25;175319;28;883;-57
2022/02/12 10:42:55;;;;;;;;;;;;;;;42.40;9.67;98700.69;175031;28;1484;-58
2022/02/12 10:43:00;;;;;;;;;;;;;;;42.32;9.81;98699.00;174382;28;1203;-57
2022/02/12 10:43:06;;;;;;;;;;;;;;;42.37;9.27;98699.22;173993;28;1157;-57
2022/02/12 10:43:11;;;;;;;;;;;;;;;42.42;9.70;98699.44;173803;28;1369;-58
2022/02/12 10:43:16;;;;;;;;;;;;;;;42.34;9.29;98703.16;174341;28;1029;-57
2022/02/12 10:43:23;;;;;;;;;;;;;;;42.42;9.44;98704.03;173774;28;1300;-57
2022/02/12 10:43:28;;;;;;;;;;;;;;;42.29;9.51;98704.84;173083;28;1114;-56
2022/02/12 10:43:34;;;;;;;;;;;;;;;42.22;9.79;98696.66;173214;28;924;-57
2022/02/12 10:43:39;;;;;;;;;;;;;;;42.20;9.40;98704.19;172460;28;1090;-58
2022/02/12 10:43:46;;;;;;;;;;;;;;;42.21;9.40;98708.56;172326;28;793;-58
2022/02/12 10:43:54;;;;;;;;;;;;;;;42.19;9.87;98699.78;172384;28;1184;-58
2022/02/12 10:43:59;;;;;;;;;;;;;;;42.28;9.72;98695.88;172491;28;1506;-57
2022/02/12 10:44:05;;;;;;;;;;;;;;;42.31;9.39;98698.16;172396;28;960;-57
2022/02/12 10:44:10;;;;;;;;;;;;;;;42.23;9.53;98697.50;173681;28;1477;-57
2022/02/12 10:44:15;;;;;;;;;;;;;;;42.20;9.52;98701.47;173107;28;1615;-58
2022/02/12 10:44:21;;;;;;;;;;;;;;;42.19;9.85;98697.09;173804;28;959;-57
2022/02/12 10:44:27;;;;;;;;;;;;;;;42.24;9.36;98694.56;173448;28;1182;-58
2022/02/12 10:44:32;;;;;;;;;;;;;;;42.27;9.66;98698.78;173795;28;1519;-58
2022/02/12 10:44:37;;;;;;;;;;;;;;;42.19;9.44;98688.94;173492;28;1022;-57
2022/02/12 10:44:43;;;;;;;;;;;;;;;42.18;9.83;98692.66;173815;28;912;-57
2022/02/12 10:44:49;;;;;;;;;;;;;;;42.18;9.32;98700.81;171686;28;1926;-57
2022/02/12 10:44:55;;;;;;;;;;;;;;;42.12;9.66;98698.88;173050;28;869;-58
2022/02/12 10:45:00;;;;;;;;;;;;;;;42.16;9.50;98691.22;172817;28;1145;-57
2022/02/12 10:45:06;;;;;;;;;;;;;;;42.30;9.77;98692.94;172509;28;814;-57
2022/02/12 10:45:16;;;;;;;;;;;;;;;42.31;9.76;98700.03;172381;28;1027;-58
2022/02/12 10:45:22;;;;;;;;;;;;;;;42.27;9.86;98696.91;172447;28;786;-57
2022/02/12 10:45:28;;;;;;;;;;;;;;;42.16;9.37;98694.75;173074;28;1031;-58
2022/02/12 10:45:34;;;;;;;;;;;;;;;42.08;9.36;98690.31;173198;28;810;-58
2022/02/12 10:45:39;;;;;;;;;;;;;;;42.18;9.30;98695.38;173115;28;1158;-58
2022/02/12 10:45:44;;;;;;;;;;;;;;;42.17;9.88;98696.41;173134;28;881;-58
2022/02/12 10:45:49;;;;;;;;;;;;;;;42.16;9.78;98692.03;172663;28;1082;-58
2022/02/12 10:45:54;;;;;;;;;;;;;;;42.25;9.47;98692.69;172903;28;1439;-58
2022/02/12 10:46:00;;;;;;;;;;;;;;;42.30;9.31;98696.50;172981;28;967;-57
2022/02/12 10:46:05;;;;;;;;;;;;;;;42.26;9.86;98694.38;173141;28;833;-57
2022/02/12 10:46:11;;;;;;;;;;;;;;;42.31;9.38;98698.16;172786;28;1502;-56
2022/02/12 10:46:16;;;;;;;;;;;;;;;42.29;9.28;98694.81;172306;28;912;-55
2022/02/12 10:46:22;;;;;;;;;;;;;;;42.24;9.88;98693.75;172672;28;878;-55
2022/02/12 10:46:27;;;;;;;;;;;;;;;42.18;9.82;98692.66;173469;28;1215;-57
2022/02/12 10:46:32;;;;;;;;;;;;;;;42.28;9.31;98703.16;173645;28;1792;-57
2022/02/12 10:46:38;;;;;;;;;;;;;;;42.36;9.54;98692.97;173268;28;4981;-58
2022/02/12 10:46:44;;;;;;;;;;;;;;;42.31;9.78;98695.44;173819;28;996;-58
2022/02/12 10:46:49;;;;;;;;;;;;;;;42.29;9.35;98700.25;173465;28;1136;-58
2022/02/12 10:46:54;;;;;;;;;;;;;;;42.29;9.77;98692.09;173675;28;817;-57
2022/02/12 10:46:59;;;;;;;;;;;;;;;42.26;9.56;98687.06;173740;28;1216;-58
2022/02/12 10:47:05;;;;;;;;;;;;;;;42.36;9.56;98689.41;173732;28;948;-57
2022/02/12 10:47:13;;;;;;;;;;;;;;;42.38;9.73;98696.31;173648;28;1128;-58
2022/02/12 10:47:18;;;;;;;;;;;;;;;42.34;9.78;98692.31;173862;28;876;-58
2022/02/12 10:47:24;;;;;;;;;;;;;;;42.35;9.56;98699.44;173757;28;1141;-57
2022/02/12 10:47:29;;;;;;;;;;;;;;;42.43;9.72;98689.44;173765;28;778;-57
2022/02/12 10:47:34;;;;;;;;;;;;;;;42.44;9.29;98689.25;173755;28;1121;-57
2022/02/12 10:47:40;;;;;;;;;;;;;;;42.45;9.27;98692.78;173769;28;869;-58
2022/02/12 10:47:45;;;;;;;;;;;;;;;42.38;9.53;98690.88;173674;28;960;-57
2022/02/12 10:47:51;;;;;;;;;;;;;;;42.40;9.67;98687.13;173683;28;869;-58
2022/02/12 10:47:57;;;;;;;;;;;;;;;42.44;9.29;98686.53;174374;28;1260;-56
2022/02/12 10:48:03;;;;;;;;;;;;;;;42.48;9.26;98686.94;174205;28;1128;-58
2022/02/12 10:48:08;;;;;;;;;;;;;;;42.45;9.27;98685.47;174368;28;1251;-57
2022/02/12 10:48:13;;;;;;;;;;;;;;;42.46;9.51;98684.44;174394;28;782;-58
2022/02/12 10:48:18;;;;;;;;;;;;;;;42.49;9.67;98685.91;174571;28;884;-57
2022/02/12 10:48:24;;;;;;;;;;;;;;;42.45;9.24;98688.19;173657;28;1419;-57
2022/02/12 10:48:29;;;;;;;;;;;;;;;42.49;9.21;98688.63;174461;28;987;-57
2022/02/12 10:48:36;;;;;;;;;;;;;;;42.47;9.22;98690.69;174524;28;1168;-57